KHEZ

Hardy-Anders Field Natchez-Adams County Airport

Natchez, Mississippi, USA
METAR KHEZ 230556Z AUTO 00000KT 10SM CLR 13/11 A3017 RMK AO2 SLP218 6//// T01280111 10156 20128 58003 PNO $
Observed Flight Rules
Oct-23 @ 05:56 UTC (19 minutes ago) Visual Flight Rules
Visibility Clouds
10 miles
  • Clear skies
Temperatures Readings
Current 13°C / 55°F
Dewpoint 11°C / 52°F
Humidity 88%
Altimeter 30.17" Hg
Pressure 1021.8 hPa
Elevation 83
METAR KHEZ 230556Z AUTO 00000KT 10SM CLR 13/11 A3017 RMK AO2 SLP218 6//// T01280111 10156 20128 58003 PNO $
Observed Flight Rules
Oct-23 @ 05:56 UTC
(19 minutes ago)
VFR
Clouds
  • Clear skies
Temperature Dewpoint
13°C / 55°F 11°C / 52°F
Humidity Altimeter Pressure
88% 30.17" Hg 1021.8 hPa